createdAt,value
2017-11-17T00:01:19.825Z,71.30
2017-11-17T00:03:47.229Z,71.50
2017-11-17T00:06:16.499Z,71.70
2017-11-17T00:08:44.652Z,71.70
2017-11-17T00:11:12.517Z,71.80
2017-11-17T00:13:39.568Z,71.80
2017-11-17T00:16:07.390Z,71.90
2017-11-17T00:18:34.402Z,72.00
2017-11-17T00:21:01.634Z,72.00
2017-11-17T00:23:28.590Z,72.00
2017-11-17T00:25:55.559Z,72.10
2017-11-17T00:28:22.525Z,72.10
2017-11-17T00:30:49.504Z,72.20
2017-11-17T00:33:16.475Z,72.30
2017-11-17T00:35:43.438Z,72.40
2017-11-17T00:38:10.406Z,72.40
2017-11-17T00:40:37.766Z,72.40
2017-11-17T00:43:04.726Z,72.40
2017-11-17T00:45:31.680Z,72.40
2017-11-17T00:47:58.642Z,72.40
2017-11-17T00:50:25.614Z,72.40
2017-11-17T00:52:52.586Z,72.40
2017-11-17T00:55:19.568Z,72.50
2017-11-17T00:57:46.543Z,72.50
2017-11-17T01:00:13.545Z,72.50
2017-11-17T01:02:40.507Z,72.50
2017-11-17T01:05:07.485Z,72.60
2017-11-17T01:07:34.465Z,72.60
2017-11-17T01:10:01.448Z,72.60
2017-11-17T01:12:28.405Z,72.60
2017-11-17T01:14:55.360Z,72.60
2017-11-17T01:17:22.313Z,72.70
2017-11-17T01:19:49.279Z,72.70
2017-11-17T01:22:16.259Z,72.70
2017-11-17T01:24:43.231Z,72.70
2017-11-17T01:27:10.202Z,72.70
2017-11-17T01:29:37.178Z,72.70
2017-11-17T01:32:04.541Z,72.80
2017-11-17T01:34:31.516Z,72.80
2017-11-17T01:36:58.585Z,72.80
2017-11-17T01:39:25.546Z,72.80
2017-11-17T01:41:52.506Z,72.80
2017-11-17T01:44:19.489Z,72.80
2017-11-17T01:46:46.471Z,72.90
2017-11-17T01:49:13.423Z,72.90
2017-11-17T01:51:40.396Z,72.90
2017-11-17T01:54:07.357Z,72.90
2017-11-17T01:56:34.323Z,72.90
2017-11-17T01:59:01.291Z,72.90
2017-11-17T02:01:28.256Z,73.00
2017-11-17T02:03:55.241Z,73.00
2017-11-17T02:06:22.227Z,73.00
2017-11-17T02:08:49.332Z,73.00
2017-11-17T02:11:16.311Z,73.00
2017-11-17T02:13:43.275Z,73.00
2017-11-17T02:16:10.239Z,73.00
2017-11-17T02:18:37.195Z,73.00
2017-11-17T02:21:04.157Z,73.00
2017-11-17T02:23:31.153Z,73.00
2017-11-17T02:25:58.115Z,73.00
2017-11-17T02:28:25.091Z,73.10
2017-11-17T02:30:52.453Z,73.10
2017-11-17T02:33:19.418Z,73.10
2017-11-17T02:35:46.389Z,73.10
2017-11-17T02:38:13.366Z,73.10
2017-11-17T02:40:40.340Z,73.10
2017-11-17T02:43:07.314Z,73.10
2017-11-17T02:45:34.292Z,73.10
2017-11-17T02:48:01.256Z,73.10
2017-11-17T02:50:28.221Z,73.10
2017-11-17T02:52:55.588Z,73.10
2017-11-17T02:55:22.569Z,73.10
2017-11-17T02:57:49.529Z,73.10
2017-11-17T03:00:16.501Z,73.10
2017-11-17T03:02:43.881Z,73.10
2017-11-17T03:05:10.847Z,73.10
2017-11-17T03:07:37.832Z,73.10
2017-11-17T03:10:04.787Z,73.00
2017-11-17T03:12:31.745Z,72.30
2017-11-17T03:14:58.707Z,71.70
2017-11-17T03:17:25.691Z,70.90
2017-11-17T03:19:52.669Z,70.60
2017-11-17T03:22:19.639Z,70.30
2017-11-17T03:24:46.593Z,69.90
2017-11-17T03:27:13.571Z,69.60
2017-11-17T03:29:40.547Z,69.30
2017-11-17T03:32:07.520Z,69.00
2017-11-17T03:34:34.482Z,68.80
2017-11-17T03:37:01.565Z,68.60
2017-11-17T03:39:28.542Z,68.50
2017-11-17T03:41:55.520Z,68.30
2017-11-17T03:44:22.501Z,68.00
2017-11-17T03:46:49.468Z,68.00
2017-11-17T03:49:16.425Z,68.20
2017-11-17T03:51:43.793Z,69.20
2017-11-17T03:54:10.764Z,69.20
2017-11-17T03:56:37.740Z,69.50
2017-11-17T03:59:04.721Z,69.80
2017-11-17T04:01:32.079Z,70.10
2017-11-17T04:03:59.059Z,70.10
2017-11-17T04:06:26.038Z,70.20
2017-11-17T04:08:53.001Z,70.30
2017-11-17T04:11:19.966Z,70.50
2017-11-17T04:13:46.927Z,70.60
2017-11-17T04:16:13.902Z,70.70
2017-11-17T04:18:40.873Z,70.80
2017-11-17T04:21:07.853Z,70.90
2017-11-17T04:23:35.227Z,71.10
2017-11-17T04:26:02.204Z,71.10
2017-11-17T04:28:29.176Z,71.10
2017-11-17T04:30:56.152Z,71.20
2017-11-17T04:33:23.519Z,71.30
2017-11-17T04:35:50.498Z,71.30
2017-11-17T04:38:17.458Z,71.40
2017-11-17T04:40:44.422Z,71.40
2017-11-17T04:43:11.397Z,71.50
2017-11-17T04:45:38.362Z,71.50
2017-11-17T04:48:05.534Z,71.60
2017-11-17T04:50:32.506Z,71.60
2017-11-17T04:52:59.483Z,71.60
2017-11-17T04:55:26.446Z,71.70
2017-11-17T04:57:53.423Z,71.70
2017-11-17T05:00:20.668Z,71.70
2017-11-17T05:02:47.626Z,71.80
2017-11-17T05:05:14.598Z,71.80
2017-11-17T05:07:41.576Z,71.80
2017-11-17T05:10:08.541Z,71.80
2017-11-17T05:12:35.498Z,71.90
2017-11-17T05:15:02.462Z,71.90
2017-11-17T05:17:29.456Z,71.90
2017-11-17T05:19:56.434Z,71.90
2017-11-17T05:22:23.579Z,71.90
2017-11-17T05:24:50.562Z,71.90
2017-11-17T05:27:17.544Z,71.90
2017-11-17T05:29:44.519Z,71.90
2017-11-17T05:32:11.485Z,72.00
2017-11-17T05:34:38.446Z,72.00
2017-11-17T05:37:05.423Z,72.00
2017-11-17T05:39:32.395Z,72.00
2017-11-17T05:41:59.382Z,72.00
2017-11-17T05:44:26.359Z,72.00
2017-11-17T05:46:53.314Z,72.10
2017-11-17T05:49:20.283Z,72.10
2017-11-17T05:51:47.264Z,72.10
2017-11-17T05:54:14.258Z,72.10
2017-11-17T05:56:41.248Z,72.10
2017-11-17T05:59:08.834Z,72.10
2017-11-17T06:01:35.814Z,72.10
2017-11-17T06:04:02.976Z,72.10
2017-11-17T06:06:29.956Z,72.20
2017-11-17T06:08:56.927Z,72.20
2017-11-17T06:11:24.300Z,72.20
2017-11-17T06:13:51.284Z,72.20
2017-11-17T06:16:18.277Z,72.30
2017-11-17T06:18:45.229Z,72.30
2017-11-17T06:21:12.228Z,72.30
2017-11-17T06:23:39.226Z,72.30
2017-11-17T06:26:06.200Z,72.30
2017-11-17T06:28:33.176Z,72.40
2017-11-17T06:31:00.130Z,72.30
2017-11-17T06:33:27.103Z,72.30
2017-11-17T06:35:54.093Z,72.30
2017-11-17T06:38:21.055Z,72.30
2017-11-17T06:40:48.078Z,72.30
2017-11-17T06:43:15.038Z,72.20
2017-11-17T06:45:42.002Z,72.30
2017-11-17T06:48:08.961Z,72.30
2017-11-17T06:50:35.931Z,72.30
2017-11-17T06:53:02.908Z,72.30
2017-11-17T06:55:29.895Z,72.20
2017-11-17T06:57:56.872Z,72.20
2017-11-17T07:00:23.844Z,72.10
2017-11-17T07:02:50.820Z,71.50
2017-11-17T07:05:17.805Z,70.90
2017-11-17T07:07:44.767Z,70.10
2017-11-17T07:10:11.741Z,69.60
2017-11-17T07:12:38.698Z,69.20
2017-11-17T07:15:05.663Z,69.00
2017-11-17T07:17:32.639Z,68.70
2017-11-17T07:19:59.608Z,68.50
2017-11-17T07:22:26.570Z,68.30
2017-11-17T07:24:53.549Z,68.10
2017-11-17T07:27:20.509Z,68.00
2017-11-17T07:29:47.871Z,67.70
2017-11-17T07:32:14.835Z,67.70
2017-11-17T07:34:41.832Z,68.50
2017-11-17T07:37:09.832Z,68.70
2017-11-17T07:39:36.813Z,68.90
2017-11-17T07:42:03.799Z,69.30
2017-11-17T07:44:30.767Z,69.60
2017-11-17T07:46:57.748Z,69.80
2017-11-17T07:49:24.716Z,70.00
2017-11-17T07:51:51.690Z,70.10
2017-11-17T07:54:19.073Z,70.20
2017-11-17T07:56:46.029Z,70.20
2017-11-17T07:59:12.994Z,70.30
2017-11-17T08:01:39.981Z,70.40
2017-11-17T08:04:07.330Z,70.60
2017-11-17T08:06:34.299Z,70.60
2017-11-17T08:09:01.266Z,70.60
2017-11-17T08:11:28.249Z,70.70
2017-11-17T08:13:55.229Z,70.70
2017-11-17T08:16:22.190Z,70.80
2017-11-17T08:18:49.188Z,70.80
2017-11-17T08:21:16.141Z,70.80
2017-11-17T08:23:43.106Z,70.90
2017-11-17T08:26:10.489Z,71.00
2017-11-17T08:28:37.457Z,70.90
2017-11-17T08:31:04.441Z,71.00
2017-11-17T08:33:31.404Z,71.00
2017-11-17T08:35:58.776Z,71.10
2017-11-17T08:38:25.752Z,71.10
2017-11-17T08:40:52.735Z,71.10
2017-11-17T08:43:19.741Z,71.10
2017-11-17T08:45:46.727Z,71.20
2017-11-17T08:48:13.698Z,71.20
2017-11-17T08:50:41.069Z,71.20
2017-11-17T08:53:08.038Z,71.30
2017-11-17T08:55:35.017Z,71.30
2017-11-17T08:58:01.979Z,71.30
2017-11-17T09:00:29.353Z,71.30
2017-11-17T09:02:56.327Z,71.30
2017-11-17T09:05:23.286Z,71.50
2017-11-17T09:07:50.260Z,71.50
2017-11-17T09:10:17.236Z,71.50
2017-11-17T09:12:44.205Z,71.50
2017-11-17T09:15:11.163Z,71.50
2017-11-17T09:17:38.130Z,71.50
2017-11-17T09:20:05.108Z,71.70
2017-11-17T09:22:32.079Z,71.70
2017-11-17T09:24:59.047Z,71.70
2017-11-17T09:27:26.019Z,71.70
2017-11-17T09:29:52.993Z,71.70
2017-11-17T09:32:19.964Z,71.70
2017-11-17T09:34:46.925Z,71.70
2017-11-17T09:37:13.882Z,71.70
2017-11-17T09:39:40.846Z,71.70
2017-11-17T09:42:07.806Z,71.70
2017-11-17T09:44:34.766Z,71.70
2017-11-17T09:47:02.139Z,71.70
2017-11-17T09:49:29.113Z,71.70
2017-11-17T09:51:56.084Z,71.70
2017-11-17T09:54:23.052Z,71.70
2017-11-17T09:56:50.424Z,71.80
2017-11-17T09:59:17.446Z,71.80
2017-11-17T10:01:44.412Z,71.80
2017-11-17T10:04:11.370Z,71.80
2017-11-17T10:06:38.332Z,71.80
2017-11-17T10:09:05.313Z,71.80
2017-11-17T10:11:32.286Z,71.80
2017-11-17T10:13:59.276Z,71.80
2017-11-17T10:16:26.259Z,71.80
2017-11-17T10:18:53.232Z,71.90
2017-11-17T10:21:20.195Z,71.90
2017-11-17T10:23:47.155Z,71.90
2017-11-17T10:26:14.132Z,71.90
2017-11-17T10:28:41.113Z,71.90
2017-11-17T10:31:08.115Z,71.90
2017-11-17T10:33:35.073Z,71.90
2017-11-17T10:36:02.068Z,71.90
2017-11-17T10:38:29.056Z,71.90
2017-11-17T10:40:56.040Z,71.90
2017-11-17T10:43:23.013Z,71.90
2017-11-17T10:45:49.977Z,71.90
2017-11-17T10:48:16.941Z,71.90
2017-11-17T10:50:43.917Z,71.90
2017-11-17T10:53:10.894Z,71.80
2017-11-17T10:55:37.869Z,71.50
2017-11-17T10:58:04.853Z,70.70
2017-11-17T11:00:31.832Z,70.30
2017-11-17T11:02:58.790Z,69.70
2017-11-17T11:05:25.753Z,69.30
2017-11-17T11:07:52.714Z,69.00
2017-11-17T11:10:19.695Z,68.70
2017-11-17T11:12:46.676Z,68.30
2017-11-17T11:15:13.664Z,68.10
2017-11-17T11:17:40.621Z,67.90
2017-11-17T11:20:07.993Z,68.10
2017-11-17T11:22:34.959Z,68.10
2017-11-17T11:25:01.923Z,68.60
2017-11-17T11:27:28.897Z,68.80
2017-11-17T11:29:55.886Z,69.20
2017-11-17T11:32:22.842Z,69.40
2017-11-17T11:34:49.817Z,69.70
2017-11-17T11:37:16.791Z,69.80
2017-11-17T11:39:43.812Z,70.00
2017-11-17T11:42:10.780Z,70.00
2017-11-17T11:44:37.757Z,70.10
2017-11-17T11:47:04.733Z,70.20
2017-11-17T11:49:31.709Z,70.30
2017-11-17T11:51:59.097Z,70.40
2017-11-17T11:54:26.066Z,70.40
2017-11-17T11:56:53.053Z,70.40
2017-11-17T11:59:20.028Z,70.50
2017-11-17T12:01:47.397Z,70.60
2017-11-17T12:04:14.378Z,70.60
2017-11-17T12:06:41.343Z,70.60
2017-11-17T12:09:08.305Z,70.60
2017-11-17T12:11:35.270Z,70.40
2017-11-17T12:14:02.264Z,70.40
2017-11-17T12:16:29.221Z,70.50
2017-11-17T12:18:56.198Z,70.50
2017-11-17T12:21:23.149Z,70.60
2017-11-17T12:23:50.516Z,70.70
2017-11-17T12:26:17.485Z,70.70
2017-11-17T12:28:44.468Z,70.70
2017-11-17T12:31:11.430Z,70.80
2017-11-17T12:33:38.786Z,70.80
2017-11-17T12:36:05.761Z,70.80
2017-11-17T12:38:32.718Z,70.80
2017-11-17T12:40:59.693Z,70.90
2017-11-17T12:43:26.841Z,70.90
2017-11-17T12:45:53.817Z,70.90
2017-11-17T12:48:20.781Z,70.90
2017-11-17T12:50:47.761Z,71.00
2017-11-17T12:53:14.753Z,71.00
2017-11-17T12:55:41.713Z,71.00
2017-11-17T12:58:09.217Z,71.00
2017-11-17T13:00:36.182Z,71.00
2017-11-17T13:03:03.160Z,71.10
2017-11-17T13:05:30.536Z,71.10
2017-11-17T13:07:57.507Z,71.10
2017-11-17T13:10:24.480Z,71.20
2017-11-17T13:12:51.509Z,71.20
2017-11-17T13:15:18.529Z,71.20
2017-11-17T13:17:45.513Z,71.20
2017-11-17T13:20:12.474Z,71.20
2017-11-17T13:22:39.448Z,71.30
2017-11-17T13:25:07.576Z,71.30
2017-11-17T13:27:34.607Z,71.30
2017-11-17T13:30:01.858Z,71.30
2017-11-17T13:32:28.835Z,71.30
2017-11-17T13:34:55.795Z,71.50
2017-11-17T13:37:23.168Z,71.50
2017-11-17T13:39:50.144Z,71.50
2017-11-17T13:42:17.824Z,71.50
2017-11-17T13:44:44.812Z,71.50
2017-11-17T13:47:11.788Z,71.50
2017-11-17T13:49:38.768Z,71.50
2017-11-17T13:52:05.762Z,71.50
2017-11-17T13:54:33.221Z,71.30
2017-11-17T13:57:00.417Z,71.50
2017-11-17T13:59:27.404Z,71.30
2017-11-17T14:01:54.366Z,71.50
2017-11-17T14:04:21.350Z,71.50
2017-11-17T14:06:48.318Z,71.30
2017-11-17T14:09:15.299Z,71.50
2017-11-17T14:11:42.672Z,71.30
2017-11-17T14:14:10.543Z,71.30
2017-11-17T14:16:37.518Z,71.30
2017-11-17T14:19:04.496Z,71.50
2017-11-17T14:21:31.861Z,71.50
2017-11-17T14:23:58.848Z,71.50
2017-11-17T14:26:25.846Z,71.50
2017-11-17T14:28:54.846Z,71.50
2017-11-17T14:31:23.022Z,71.50
2017-11-17T14:33:50.220Z,71.50
2017-11-17T14:36:17.370Z,71.50
2017-11-17T14:38:44.520Z,71.50
2017-11-17T14:41:11.590Z,71.50
2017-11-17T14:43:38.719Z,71.50
2017-11-17T14:46:05.896Z,71.50
2017-11-17T14:48:34.351Z,71.50
2017-11-17T15:03:56.570Z,71.10
2017-11-17T15:06:24.466Z,68.30
2017-11-17T15:08:51.449Z,68.10
2017-11-17T15:11:18.424Z,67.90
2017-11-17T15:13:45.709Z,68.70
2017-11-17T15:16:13.064Z,68.80
2017-11-17T15:18:41.554Z,69.10
2017-11-17T15:21:10.174Z,69.40
2017-11-17T15:23:37.359Z,69.60
2017-11-17T15:26:04.346Z,69.80
2017-11-17T15:28:31.339Z,69.90
2017-11-17T15:30:58.861Z,70.00
2017-11-17T15:33:26.259Z,70.20
2017-11-17T15:35:54.132Z,70.20
2017-11-17T15:38:21.113Z,70.20
2017-11-17T15:40:48.356Z,70.30
2017-11-17T15:43:15.381Z,70.30
2017-11-17T15:45:42.356Z,70.40
2017-11-17T15:48:09.365Z,70.40
2017-11-17T15:50:36.361Z,70.50
2017-11-17T15:53:03.768Z,70.60
2017-11-17T15:55:30.767Z,70.50
2017-11-17T15:57:57.864Z,70.60
2017-11-17T16:00:24.851Z,70.60
2017-11-17T16:02:52.504Z,70.60
2017-11-17T16:05:19.498Z,70.70
2017-11-17T16:07:46.486Z,70.70
2017-11-17T16:10:13.477Z,70.80
2017-11-17T16:12:40.467Z,70.80
2017-11-17T16:15:07.441Z,70.80
2017-11-17T16:17:34.411Z,70.80
2017-11-17T16:20:01.789Z,70.90
2017-11-17T16:22:28.766Z,70.90
2017-11-17T16:24:55.758Z,70.90
2017-11-17T16:27:22.947Z,70.90
2017-11-17T16:29:50.101Z,71.00
2017-11-17T16:32:17.106Z,71.00
2017-11-17T16:34:44.107Z,71.00
2017-11-17T16:37:11.660Z,71.00
2017-11-17T16:39:38.803Z,71.10
2017-11-17T16:42:05.787Z,71.10
2017-11-17T16:44:32.832Z,71.10
2017-11-17T16:46:59.804Z,71.10
2017-11-17T16:49:26.820Z,71.10
2017-11-17T16:51:53.849Z,71.20
2017-11-17T16:54:20.835Z,71.20
2017-11-17T16:56:48.143Z,71.20
2017-11-17T16:59:15.118Z,71.20
2017-11-17T17:01:42.099Z,71.20
2017-11-17T17:04:09.084Z,71.20
2017-11-17T17:06:36.075Z,71.20
2017-11-17T17:09:03.048Z,71.20
2017-11-17T17:11:30.130Z,71.20
2017-11-17T17:13:57.117Z,71.30
2017-11-17T17:16:24.095Z,71.30
2017-11-17T17:18:51.084Z,71.30
2017-11-17T17:21:18.073Z,71.30
2017-11-17T17:23:45.261Z,71.20
2017-11-17T17:26:12.251Z,71.30
2017-11-17T17:28:39.252Z,71.20
2017-11-17T17:31:06.228Z,71.20
